sensor_id;sensor_type;location;lat;lon;timestamp;temperature;humidity
50560;DHT22;36510;52.610;13.468;2022-10-16T00:01:53;16.40;59.70
50560;DHT22;36510;52.610;13.468;2022-10-16T00:06:43;16.40;59.70
50560;DHT22;36510;52.610;13.468;2022-10-16T00:11:36;16.40;59.90
50560;DHT22;36510;52.610;13.468;2022-10-16T00:16:28;16.30;60.00
50560;DHT22;36510;52.610;13.468;2022-10-16T00:21:24;16.30;60.60
50560;DHT22;36510;52.610;13.468;2022-10-16T00:26:18;16.40;61.20
50560;DHT22;36510;52.610;13.468;2022-10-16T00:31:11;16.40;61.00
50560;DHT22;36510;52.610;13.468;2022-10-16T00:36:04;16.50;61.00
50560;DHT22;36510;52.610;13.468;2022-10-16T00:40:54;16.60;60.50
50560;DHT22;36510;52.610;13.468;2022-10-16T00:45:45;16.50;61.10
50560;DHT22;36510;52.610;13.468;2022-10-16T00:50:35;16.40;62.70
50560;DHT22;36510;52.610;13.468;2022-10-16T00:55:27;16.50;62.20
50560;DHT22;36510;52.610;13.468;2022-10-16T01:00:22;16.40;62.90
50560;DHT22;36510;52.610;13.468;2022-10-16T01:05:13;16.30;63.20
50560;DHT22;36510;52.610;13.468;2022-10-16T01:10:35;16.40;63.00
50560;DHT22;36510;52.610;13.468;2022-10-16T01:16:01;16.50;62.50
50560;DHT22;36510;52.610;13.468;2022-10-16T01:21:22;16.60;61.70
50560;DHT22;36510;52.610;13.468;2022-10-16T01:31:26;16.60;61.10
50560;DHT22;36510;52.610;13.468;2022-10-16T01:36:21;16.60;61.70
50560;DHT22;36510;52.610;13.468;2022-10-16T01:41:34;16.50;62.30
50560;DHT22;36510;52.610;13.468;2022-10-16T01:46:26;16.60;61.90
50560;DHT22;36510;52.610;13.468;2022-10-16T01:51:18;16.60;62.00
50560;DHT22;36510;52.610;13.468;2022-10-16T01:56:11;16.70;61.40
50560;DHT22;36510;52.610;13.468;2022-10-16T02:01:04;16.50;62.00
50560;DHT22;36510;52.610;13.468;2022-10-16T02:05:58;16.50;62.40
50560;DHT22;36510;52.610;13.468;2022-10-16T02:10:49;16.60;62.00
50560;DHT22;36510;52.610;13.468;2022-10-16T02:15:40;16.50;63.00
50560;DHT22;36510;52.610;13.468;2022-10-16T02:20:34;16.50;62.80
50560;DHT22;36510;52.610;13.468;2022-10-16T02:25:37;16.60;62.10
50560;DHT22;36510;52.610;13.468;2022-10-16T02:30:35;16.60;62.10
50560;DHT22;36510;52.610;13.468;2022-10-16T02:35:27;16.70;61.00
50560;DHT22;36510;52.610;13.468;2022-10-16T02:40:19;16.70;60.20
50560;DHT22;36510;52.610;13.468;2022-10-16T02:45:11;16.70;60.30
50560;DHT22;36510;52.610;13.468;2022-10-16T02:50:03;16.70;60.80
50560;DHT22;36510;52.610;13.468;2022-10-16T02:54:54;16.80;59.90
50560;DHT22;36510;52.610;13.468;2022-10-16T02:59:44;16.80;59.70
50560;DHT22;36510;52.610;13.468;2022-10-16T03:04:35;16.70;59.20
50560;DHT22;36510;52.610;13.468;2022-10-16T03:09:26;16.70;59.80
50560;DHT22;36510;52.610;13.468;2022-10-16T03:14:16;16.60;60.00
50560;DHT22;36510;52.610;13.468;2022-10-16T03:19:06;16.60;59.90
50560;DHT22;36510;52.610;13.468;2022-10-16T03:23:57;16.70;59.50
50560;DHT22;36510;52.610;13.468;2022-10-16T03:28:47;16.70;59.00
50560;DHT22;36510;52.610;13.468;2022-10-16T03:33:38;16.70;58.50
50560;DHT22;36510;52.610;13.468;2022-10-16T03:38:28;16.80;57.80
50560;DHT22;36510;52.610;13.468;2022-10-16T03:43:19;16.70;56.50
50560;DHT22;36510;52.610;13.468;2022-10-16T03:48:09;16.60;58.40
50560;DHT22;36510;52.610;13.468;2022-10-16T03:53:00;16.60;58.50
50560;DHT22;36510;52.610;13.468;2022-10-16T03:57:51;16.60;58.20
50560;DHT22;36510;52.610;13.468;2022-10-16T04:02:41;16.50;57.60
50560;DHT22;36510;52.610;13.468;2022-10-16T04:07:32;16.40;58.30
50560;DHT22;36510;52.610;13.468;2022-10-16T04:12:22;16.40;58.70
50560;DHT22;36510;52.610;13.468;2022-10-16T04:17:13;16.40;59.40
50560;DHT22;36510;52.610;13.468;2022-10-16T04:22:03;16.40;58.40
50560;DHT22;36510;52.610;13.468;2022-10-16T04:26:54;16.40;58.10
50560;DHT22;36510;52.610;13.468;2022-10-16T04:31:44;16.30;57.90
50560;DHT22;36510;52.610;13.468;2022-10-16T04:36:35;16.30;59.10
50560;DHT22;36510;52.610;13.468;2022-10-16T04:41:25;16.30;59.80
50560;DHT22;36510;52.610;13.468;2022-10-16T04:46:16;16.20;60.30
50560;DHT22;36510;52.610;13.468;2022-10-16T04:51:06;16.20;60.10
50560;DHT22;36510;52.610;13.468;2022-10-16T04:55:57;16.20;60.40
50560;DHT22;36510;52.610;13.468;2022-10-16T05:00:47;16.20;60.90
50560;DHT22;36510;52.610;13.468;2022-10-16T05:05:42;16.30;59.50
50560;DHT22;36510;52.610;13.468;2022-10-16T05:10:34;16.20;58.10
50560;DHT22;36510;52.610;13.468;2022-10-16T05:15:24;16.10;57.80
50560;DHT22;36510;52.610;13.468;2022-10-16T05:20:15;16.00;58.60
50560;DHT22;36510;52.610;13.468;2022-10-16T05:25:06;16.00;60.40
50560;DHT22;36510;52.610;13.468;2022-10-16T05:29:56;16.00;61.60
50560;DHT22;36510;52.610;13.468;2022-10-16T05:34:47;16.00;61.60
50560;DHT22;36510;52.610;13.468;2022-10-16T05:39:38;16.00;61.90
50560;DHT22;36510;52.610;13.468;2022-10-16T05:44:28;16.00;60.90
50560;DHT22;36510;52.610;13.468;2022-10-16T05:49:19;16.00;59.80
50560;DHT22;36510;52.610;13.468;2022-10-16T05:54:09;16.00;60.00
50560;DHT22;36510;52.610;13.468;2022-10-16T05:59:00;16.10;60.30
50560;DHT22;36510;52.610;13.468;2022-10-16T06:03:51;16.10;60.80
50560;DHT22;36510;52.610;13.468;2022-10-16T06:08:43;16.20;60.90
50560;DHT22;36510;52.610;13.468;2022-10-16T06:13:35;16.20;61.60
50560;DHT22;36510;52.610;13.468;2022-10-16T06:18:27;16.20;62.50
50560;DHT22;36510;52.610;13.468;2022-10-16T06:23:18;16.00;64.20
50560;DHT22;36510;52.610;13.468;2022-10-16T06:28:08;15.90;65.20
50560;DHT22;36510;52.610;13.468;2022-10-16T06:32:58;15.90;65.30
50560;DHT22;36510;52.610;13.468;2022-10-16T06:37:49;15.90;65.60
50560;DHT22;36510;52.610;13.468;2022-10-16T06:42:40;15.90;66.20
50560;DHT22;36510;52.610;13.468;2022-10-16T06:47:30;15.80;66.80
50560;DHT22;36510;52.610;13.468;2022-10-16T06:52:21;15.90;66.90
50560;DHT22;36510;52.610;13.468;2022-10-16T06:57:11;15.90;66.40
50560;DHT22;36510;52.610;13.468;2022-10-16T07:02:02;15.90;66.30
50560;DHT22;36510;52.610;13.468;2022-10-16T07:06:52;15.90;66.60
50560;DHT22;36510;52.610;13.468;2022-10-16T07:11:43;16.00;66.20
50560;DHT22;36510;52.610;13.468;2022-10-16T07:16:33;15.90;66.40
50560;DHT22;36510;52.610;13.468;2022-10-16T07:21:25;16.10;65.80
50560;DHT22;36510;52.610;13.468;2022-10-16T07:26:19;16.10;66.20
50560;DHT22;36510;52.610;13.468;2022-10-16T07:31:11;16.20;65.50
50560;DHT22;36510;52.610;13.468;2022-10-16T07:36:02;16.20;66.10
50560;DHT22;36510;52.610;13.468;2022-10-16T07:40:59;16.30;65.60
50560;DHT22;36510;52.610;13.468;2022-10-16T07:45:50;16.40;64.80
50560;DHT22;36510;52.610;13.468;2022-10-16T07:50:41;16.60;64.80
50560;DHT22;36510;52.610;13.468;2022-10-16T07:55:32;16.70;63.60
50560;DHT22;36510;52.610;13.468;2022-10-16T08:00:22;16.80;62.70
50560;DHT22;36510;52.610;13.468;2022-10-16T08:05:13;16.90;62.50
50560;DHT22;36510;52.610;13.468;2022-10-16T08:10:03;17.00;61.80
50560;DHT22;36510;52.610;13.468;2022-10-16T08:14:54;17.10;61.80
50560;DHT22;36510;52.610;13.468;2022-10-16T08:19:45;17.20;60.80
50560;DHT22;36510;52.610;13.468;2022-10-16T08:24:36;17.30;60.30
50560;DHT22;36510;52.610;13.468;2022-10-16T08:29:27;17.30;60.50
50560;DHT22;36510;52.610;13.468;2022-10-16T08:34:17;17.40;60.90
50560;DHT22;36510;52.610;13.468;2022-10-16T08:39:08;17.40;60.10
50560;DHT22;36510;52.610;13.468;2022-10-16T08:44:31;17.40;60.10
50560;DHT22;36510;52.610;13.468;2022-10-16T08:49:26;17.40;59.30
50560;DHT22;36510;52.610;13.468;2022-10-16T08:54:26;17.50;58.70
50560;DHT22;36510;52.610;13.468;2022-10-16T08:59:19;17.50;58.40
50560;DHT22;36510;52.610;13.468;2022-10-16T09:09:34;17.70;58.50
50560;DHT22;36510;52.610;13.468;2022-10-16T09:14:58;17.80;58.30
50560;DHT22;36510;52.610;13.468;2022-10-16T09:19:56;17.90;57.60
50560;DHT22;36510;52.610;13.468;2022-10-16T09:24:49;17.90;56.10
50560;DHT22;36510;52.610;13.468;2022-10-16T09:29:39;18.00;55.90
50560;DHT22;36510;52.610;13.468;2022-10-16T09:34:34;18.00;54.70
50560;DHT22;36510;52.610;13.468;2022-10-16T09:39:26;18.10;54.80
50560;DHT22;36510;52.610;13.468;2022-10-16T09:44:21;18.30;54.40
50560;DHT22;36510;52.610;13.468;2022-10-16T09:49:25;18.50;53.10
50560;DHT22;36510;52.610;13.468;2022-10-16T09:54:20;18.70;52.00
50560;DHT22;36510;52.610;13.468;2022-10-16T09:59:13;18.70;52.00
50560;DHT22;36510;52.610;13.468;2022-10-16T10:04:05;18.90;51.60
50560;DHT22;36510;52.610;13.468;2022-10-16T10:14:06;19.40;47.40
50560;DHT22;36510;52.610;13.468;2022-10-16T10:19:00;19.60;46.00
50560;DHT22;36510;52.610;13.468;2022-10-16T10:23:57;19.40;46.20
50560;DHT22;36510;52.610;13.468;2022-10-16T10:29:17;19.20;46.90
50560;DHT22;36510;52.610;13.468;2022-10-16T10:39:30;19.30;46.80
50560;DHT22;36510;52.610;13.468;2022-10-16T10:50:01;19.20;49.00
50560;DHT22;36510;52.610;13.468;2022-10-16T11:00:40;19.30;46.50
50560;DHT22;36510;52.610;13.468;2022-10-16T11:05:43;19.60;45.60
50560;DHT22;36510;52.610;13.468;2022-10-16T11:10:49;19.70;43.80
50560;DHT22;36510;52.610;13.468;2022-10-16T11:15:42;19.80;42.30
50560;DHT22;36510;52.610;13.468;2022-10-16T11:21:04;19.70;41.90
50560;DHT22;36510;52.610;13.468;2022-10-16T11:26:02;19.60;41.90
50560;DHT22;36510;52.610;13.468;2022-10-16T11:31:13;19.50;43.70
50560;DHT22;36510;52.610;13.468;2022-10-16T11:36:38;19.50;43.60
50560;DHT22;36510;52.610;13.468;2022-10-16T11:41:34;19.50;41.80
50560;DHT22;36510;52.610;13.468;2022-10-16T11:46:26;19.70;41.90
50560;DHT22;36510;52.610;13.468;2022-10-16T11:51:38;20.10;38.60
50560;DHT22;36510;52.610;13.468;2022-10-16T11:56:30;20.60;36.80
50560;DHT22;36510;52.610;13.468;2022-10-16T12:01:26;20.80;33.80
50560;DHT22;36510;52.610;13.468;2022-10-16T12:06:30;21.00;28.10
50560;DHT22;36510;52.610;13.468;2022-10-16T12:11:38;21.00;29.00
50560;DHT22;36510;52.610;13.468;2022-10-16T12:16:29;21.20;27.40
50560;DHT22;36510;52.610;13.468;2022-10-16T12:21:30;21.20;27.30
50560;DHT22;36510;52.610;13.468;2022-10-16T12:31:16;21.30;22.40
50560;DHT22;36510;52.610;13.468;2022-10-16T12:36:30;21.30;23.30
50560;DHT22;36510;52.610;13.468;2022-10-16T12:41:29;21.60;21.80
50560;DHT22;36510;52.610;13.468;2022-10-16T12:46:21;21.80;20.70
50560;DHT22;36510;52.610;13.468;2022-10-16T12:51:23;21.80;19.10
50560;DHT22;36510;52.610;13.468;2022-10-16T12:56:24;21.70;19.60
50560;DHT22;36510;52.610;13.468;2022-10-16T13:12:35;21.90;18.20
50560;DHT22;36510;52.610;13.468;2022-10-16T13:18:06;21.90;18.50
50560;DHT22;36510;52.610;13.468;2022-10-16T13:23:29;21.90;16.80
50560;DHT22;36510;52.610;13.468;2022-10-16T13:28:27;21.80;16.90
50560;DHT22;36510;52.610;13.468;2022-10-16T13:33:32;21.70;18.00
50560;DHT22;36510;52.610;13.468;2022-10-16T13:38:30;21.80;17.90
50560;DHT22;36510;52.610;13.468;2022-10-16T13:43:46;21.50;17.30
50560;DHT22;36510;52.610;13.468;2022-10-16T13:48:35;21.50;16.60
50560;DHT22;36510;52.610;13.468;2022-10-16T13:53:26;21.30;15.30
50560;DHT22;36510;52.610;13.468;2022-10-16T13:58:16;21.00;16.20
50560;DHT22;36510;52.610;13.468;2022-10-16T14:03:13;21.00;16.50
50560;DHT22;36510;52.610;13.468;2022-10-16T14:08:05;21.10;16.20
50560;DHT22;36510;52.610;13.468;2022-10-16T14:13:00;21.00;16.00
50560;DHT22;36510;52.610;13.468;2022-10-16T14:17:52;20.80;16.50
50560;DHT22;36510;52.610;13.468;2022-10-16T14:22:43;20.70;17.10
50560;DHT22;36510;52.610;13.468;2022-10-16T14:27:36;20.60;17.00
50560;DHT22;36510;52.610;13.468;2022-10-16T14:32:27;20.50;17.80
50560;DHT22;36510;52.610;13.468;2022-10-16T14:37:28;20.40;17.80
50560;DHT22;36510;52.610;13.468;2022-10-16T14:42:21;20.50;17.70
50560;DHT22;36510;52.610;13.468;2022-10-16T14:47:21;20.50;18.10
50560;DHT22;36510;52.610;13.468;2022-10-16T14:52:15;20.50;18.40
50560;DHT22;36510;52.610;13.468;2022-10-16T14:57:05;20.50;18.20
50560;DHT22;36510;52.610;13.468;2022-10-16T15:07:10;20.40;19.20
50560;DHT22;36510;52.610;13.468;2022-10-16T15:12:01;20.40;19.20
50560;DHT22;36510;52.610;13.468;2022-10-16T15:16:51;20.40;19.00
50560;DHT22;36510;52.610;13.468;2022-10-16T15:21:42;20.40;19.40
50560;DHT22;36510;52.610;13.468;2022-10-16T15:26:33;20.40;20.30
50560;DHT22;36510;52.610;13.468;2022-10-16T15:31:24;20.40;20.10
50560;DHT22;36510;52.610;13.468;2022-10-16T15:36:15;20.20;20.20
50560;DHT22;36510;52.610;13.468;2022-10-16T15:41:05;20.10;19.40
50560;DHT22;36510;52.610;13.468;2022-10-16T15:46:05;20.00;19.10
50560;DHT22;36510;52.610;13.468;2022-10-16T15:50:56;20.10;18.90
50560;DHT22;36510;52.610;13.468;2022-10-16T15:55:47;20.00;19.60
50560;DHT22;36510;52.610;13.468;2022-10-16T16:00:37;19.80;19.20
50560;DHT22;36510;52.610;13.468;2022-10-16T16:05:28;19.60;19.60
50560;DHT22;36510;52.610;13.468;2022-10-16T16:10:19;19.70;20.20
50560;DHT22;36510;52.610;13.468;2022-10-16T16:15:11;19.70;21.00
50560;DHT22;36510;52.610;13.468;2022-10-16T16:20:03;19.50;22.00
50560;DHT22;36510;52.610;13.468;2022-10-16T16:24:54;19.20;23.00
50560;DHT22;36510;52.610;13.468;2022-10-16T16:29:44;18.90;24.10
50560;DHT22;36510;52.610;13.468;2022-10-16T16:34:35;18.70;24.80
50560;DHT22;36510;52.610;13.468;2022-10-16T16:39:25;18.50;25.40
50560;DHT22;36510;52.610;13.468;2022-10-16T16:44:16;18.30;26.10
50560;DHT22;36510;52.610;13.468;2022-10-16T16:49:07;18.10;26.70
50560;DHT22;36510;52.610;13.468;2022-10-16T16:53:57;17.90;27.30
50560;DHT22;36510;52.610;13.468;2022-10-16T16:58:49;17.80;27.90
50560;DHT22;36510;52.610;13.468;2022-10-16T17:03:42;17.70;28.20
50560;DHT22;36510;52.610;13.468;2022-10-16T17:08:37;17.50;28.40
50560;DHT22;36510;52.610;13.468;2022-10-16T17:13:29;17.30;28.90
50560;DHT22;36510;52.610;13.468;2022-10-16T17:18:23;17.20;29.80
50560;DHT22;36510;52.610;13.468;2022-10-16T17:23:15;17.10;30.00
50560;DHT22;36510;52.610;13.468;2022-10-16T17:28:06;17.00;30.00
50560;DHT22;36510;52.610;13.468;2022-10-16T17:32:57;17.00;30.10
50560;DHT22;36510;52.610;13.468;2022-10-16T17:37:47;16.90;30.10
50560;DHT22;36510;52.610;13.468;2022-10-16T17:42:39;16.80;30.00
50560;DHT22;36510;52.610;13.468;2022-10-16T17:47:31;16.70;30.30
50560;DHT22;36510;52.610;13.468;2022-10-16T17:52:22;16.40;30.80
50560;DHT22;36510;52.610;13.468;2022-10-16T17:57:12;16.40;31.90
50560;DHT22;36510;52.610;13.468;2022-10-16T18:02:03;16.20;32.30
50560;DHT22;36510;52.610;13.468;2022-10-16T18:06:54;16.20;32.30
50560;DHT22;36510;52.610;13.468;2022-10-16T18:11:45;16.20;32.30
50560;DHT22;36510;52.610;13.468;2022-10-16T18:16:38;16.00;32.10
50560;DHT22;36510;52.610;13.468;2022-10-16T18:21:29;15.90;32.80
50560;DHT22;36510;52.610;13.468;2022-10-16T18:26:20;15.70;33.50
50560;DHT22;36510;52.610;13.468;2022-10-16T18:31:13;15.80;34.60
50560;DHT22;36510;52.610;13.468;2022-10-16T18:36:08;15.90;33.50
50560;DHT22;36510;52.610;13.468;2022-10-16T18:40:59;16.00;32.50
50560;DHT22;36510;52.610;13.468;2022-10-16T18:46:00;15.80;32.10
50560;DHT22;36510;52.610;13.468;2022-10-16T18:50:51;15.50;34.40
50560;DHT22;36510;52.610;13.468;2022-10-16T18:55:42;15.40;34.70
50560;DHT22;36510;52.610;13.468;2022-10-16T19:00:32;15.30;35.00
50560;DHT22;36510;52.610;13.468;2022-10-16T19:05:23;15.10;35.50
50560;DHT22;36510;52.610;13.468;2022-10-16T19:10:14;14.80;37.60
50560;DHT22;36510;52.610;13.468;2022-10-16T19:15:05;14.80;39.00
50560;DHT22;36510;52.610;13.468;2022-10-16T19:19:55;14.80;39.10
50560;DHT22;36510;52.610;13.468;2022-10-16T19:24:46;14.70;39.30
50560;DHT22;36510;52.610;13.468;2022-10-16T19:29:36;14.80;39.70
50560;DHT22;36510;52.610;13.468;2022-10-16T19:34:30;14.90;38.50
50560;DHT22;36510;52.610;13.468;2022-10-16T19:39:21;15.10;37.20
50560;DHT22;36510;52.610;13.468;2022-10-16T19:44:15;15.20;35.80
50560;DHT22;36510;52.610;13.468;2022-10-16T19:49:09;15.30;35.80
50560;DHT22;36510;52.610;13.468;2022-10-16T19:54:02;15.20;36.20
50560;DHT22;36510;52.610;13.468;2022-10-16T19:58:54;15.20;36.30
50560;DHT22;36510;52.610;13.468;2022-10-16T20:03:47;15.30;35.40
50560;DHT22;36510;52.610;13.468;2022-10-16T20:08:39;15.40;35.20
50560;DHT22;36510;52.610;13.468;2022-10-16T20:13:30;15.30;35.90
50560;DHT22;36510;52.610;13.468;2022-10-16T20:18:21;15.20;36.20
50560;DHT22;36510;52.610;13.468;2022-10-16T20:23:11;15.30;35.90
50560;DHT22;36510;52.610;13.468;2022-10-16T20:28:03;15.30;35.70
50560;DHT22;36510;52.610;13.468;2022-10-16T20:32:54;15.20;35.80
50560;DHT22;36510;52.610;13.468;2022-10-16T20:37:46;15.20;35.90
50560;DHT22;36510;52.610;13.468;2022-10-16T20:42:38;15.20;35.60
50560;DHT22;36510;52.610;13.468;2022-10-16T20:47:28;15.20;35.50
50560;DHT22;36510;52.610;13.468;2022-10-16T20:52:19;15.00;35.80
50560;DHT22;36510;52.610;13.468;2022-10-16T20:57:09;14.70;38.50
50560;DHT22;36510;52.610;13.468;2022-10-16T21:02:00;14.00;43.20
50560;DHT22;36510;52.610;13.468;2022-10-16T21:06:50;13.80;45.90
50560;DHT22;36510;52.610;13.468;2022-10-16T21:11:41;14.00;46.20
50560;DHT22;36510;52.610;13.468;2022-10-16T21:16:31;14.20;44.50
50560;DHT22;36510;52.610;13.468;2022-10-16T21:21:28;14.50;43.30
50560;DHT22;36510;52.610;13.468;2022-10-16T21:26:20;14.60;41.80
50560;DHT22;36510;52.610;13.468;2022-10-16T21:31:18;14.50;42.20
50560;DHT22;36510;52.610;13.468;2022-10-16T21:36:20;14.60;41.70
50560;DHT22;36510;52.610;13.468;2022-10-16T21:41:29;14.70;41.70
50560;DHT22;36510;52.610;13.468;2022-10-16T21:46:22;14.70;41.60
50560;DHT22;36510;52.610;13.468;2022-10-16T21:51:13;14.80;41.60
50560;DHT22;36510;52.610;13.468;2022-10-16T21:56:10;14.90;41.10
50560;DHT22;36510;52.610;13.468;2022-10-16T22:01:06;14.80;40.90
50560;DHT22;36510;52.610;13.468;2022-10-16T22:06:00;14.70;41.00
50560;DHT22;36510;52.610;13.468;2022-10-16T22:10:51;14.70;41.40
50560;DHT22;36510;52.610;13.468;2022-10-16T22:15:50;14.80;40.90
50560;DHT22;36510;52.610;13.468;2022-10-16T22:20:45;15.00;40.10
50560;DHT22;36510;52.610;13.468;2022-10-16T22:25:35;15.00;39.20
50560;DHT22;36510;52.610;13.468;2022-10-16T22:30:26;15.10;38.70
50560;DHT22;36510;52.610;13.468;2022-10-16T22:35:16;15.10;38.10
50560;DHT22;36510;52.610;13.468;2022-10-16T22:40:07;14.90;38.30
50560;DHT22;36510;52.610;13.468;2022-10-16T22:44:58;14.90;38.80
50560;DHT22;36510;52.610;13.468;2022-10-16T22:49:49;14.60;39.30
50560;DHT22;36510;52.610;13.468;2022-10-16T22:54:39;14.40;41.20
50560;DHT22;36510;52.610;13.468;2022-10-16T22:59:29;14.40;41.00
50560;DHT22;36510;52.610;13.468;2022-10-16T23:04:20;14.50;40.90
50560;DHT22;36510;52.610;13.468;2022-10-16T23:09:10;14.60;40.60
50560;DHT22;36510;52.610;13.468;2022-10-16T23:14:01;14.50;40.20
50560;DHT22;36510;52.610;13.468;2022-10-16T23:18:51;14.50;41.10
50560;DHT22;36510;52.610;13.468;2022-10-16T23:23:42;14.60;41.40
50560;DHT22;36510;52.610;13.468;2022-10-16T23:28:33;14.60;41.30
50560;DHT22;36510;52.610;13.468;2022-10-16T23:33:23;14.70;41.30
50560;DHT22;36510;52.610;13.468;2022-10-16T23:38:14;14.80;41.80
50560;DHT22;36510;52.610;13.468;2022-10-16T23:43:04;14.90;41.10
50560;DHT22;36510;52.610;13.468;2022-10-16T23:47:55;15.00;40.50
50560;DHT22;36510;52.610;13.468;2022-10-16T23:52:45;15.00;41.60
50560;DHT22;36510;52.610;13.468;2022-10-16T23:57:36;15.10;41.60
